createdAt,value
2023-03-22T00:00:28.031Z,7.73
2023-03-22T00:03:31.163Z,7.61
2023-03-22T00:06:33.735Z,7.53
2023-03-22T00:09:36.703Z,7.46
2023-03-22T00:12:39.424Z,7.41
2023-03-22T00:15:45.533Z,7.33
2023-03-22T00:18:48.463Z,7.29
2023-03-22T00:21:51.567Z,7.24
2023-03-22T00:24:54.133Z,7.22
2023-03-22T00:27:56.944Z,7.24
2023-03-22T00:31:01.273Z,7.23
2023-03-22T00:34:04.183Z,7.29
2023-03-22T00:37:08.057Z,7.30
2023-03-22T00:40:13.574Z,7.25
2023-03-22T00:43:16.839Z,7.28
2023-03-22T00:46:21.836Z,7.21
2023-03-22T00:49:25.625Z,7.11
2023-03-22T00:52:29.701Z,7.10
2023-03-22T00:55:33.366Z,6.98
2023-03-22T00:58:36.182Z,6.95
2023-03-22T01:01:40.033Z,6.93
2023-03-22T01:04:46.408Z,6.89
2023-03-22T01:07:52.149Z,6.84
2023-03-22T01:10:55.046Z,6.72
2023-03-22T01:13:59.602Z,6.70
2023-03-22T01:17:02.924Z,6.61
2023-03-22T01:20:06.971Z,6.57
2023-03-22T01:23:10.073Z,6.59
2023-03-22T01:26:12.793Z,6.53
2023-03-22T01:29:16.061Z,6.44
2023-03-22T01:32:18.621Z,6.35
2023-03-22T01:35:21.814Z,6.29
2023-03-22T01:38:24.383Z,6.27
2023-03-22T01:41:28.151Z,6.33
2023-03-22T01:44:33.579Z,6.33
2023-03-22T01:47:36.836Z,6.24
2023-03-22T01:50:42.636Z,6.22
2023-03-22T01:53:51.864Z,6.04
2023-03-22T01:56:54.765Z,5.94
2023-03-22T02:00:00.705Z,5.87
2023-03-22T02:03:06.259Z,5.83
2023-03-22T02:06:09.599Z,5.79
2023-03-22T02:09:17.392Z,5.74
2023-03-22T02:12:23.158Z,5.81
2023-03-22T02:15:36.176Z,5.76
2023-03-22T02:18:49.349Z,5.65
2023-03-22T02:22:10.341Z,5.61
2023-03-22T02:25:19.240Z,5.59
2023-03-22T02:28:22.017Z,5.64
2023-03-22T02:32:03.944Z,5.54
2023-03-22T02:35:38.925Z,5.44
2023-03-22T02:38:58.458Z,5.43
2023-03-22T02:42:02.807Z,5.42
2023-03-22T02:45:18.220Z,5.50
2023-03-22T02:48:30.832Z,5.57
2023-03-22T02:51:44.741Z,5.61
2023-03-22T02:55:03.827Z,5.67
2023-03-22T02:58:18.968Z,5.88
2023-03-22T03:01:29.122Z,5.90
2023-03-22T03:04:41.138Z,5.86
2023-03-22T03:07:50.457Z,5.84
2023-03-22T03:10:54.901Z,5.87
2023-03-22T03:13:57.791Z,5.92
2023-03-22T03:17:19.263Z,5.98
2023-03-22T03:20:30.450Z,6.11
2023-03-22T03:23:46.709Z,6.21
2023-03-22T03:27:08.588Z,6.10
2023-03-22T03:30:16.953Z,6.03
2023-03-22T03:33:25.597Z,6.00
2023-03-22T03:36:30.863Z,5.96
2023-03-22T03:39:39.865Z,6.00
2023-03-22T03:42:50.322Z,6.06
2023-03-22T03:45:54.337Z,5.98
2023-03-22T03:48:58.289Z,5.91
2023-03-22T03:52:01.461Z,5.88
2023-03-22T03:55:05.092Z,5.80
2023-03-22T03:58:09.564Z,5.71
2023-03-22T04:01:12.626Z,5.65
2023-03-22T04:04:26.668Z,5.68
2023-03-22T04:07:29.689Z,5.70
2023-03-22T04:10:32.721Z,5.67
2023-03-22T04:13:35.690Z,5.67
2023-03-22T04:16:38.924Z,5.64
2023-03-22T04:19:47.004Z,5.73
2023-03-22T04:22:49.997Z,5.68
2023-03-22T04:25:54.658Z,5.66
2023-03-22T04:28:58.663Z,5.70
2023-03-22T04:32:02.742Z,5.59
2023-03-22T04:35:06.435Z,5.53
2023-03-22T04:38:09.986Z,5.51
2023-03-22T04:41:13.738Z,5.51
2023-03-22T04:44:17.054Z,5.45
2023-03-22T04:47:22.869Z,5.42
2023-03-22T04:50:28.245Z,5.37
2023-03-22T04:53:33.111Z,5.37
2023-03-22T04:56:36.118Z,5.37
2023-03-22T04:59:39.036Z,5.46
2023-03-22T05:02:42.181Z,5.57
2023-03-22T05:05:54.398Z,5.57
2023-03-22T05:08:57.673Z,5.58
2023-03-22T05:12:01.012Z,5.64
2023-03-22T05:15:06.136Z,5.66
2023-03-22T05:18:09.583Z,5.73
2023-03-22T05:21:16.715Z,5.81
2023-03-22T05:24:20.670Z,5.88
2023-03-22T05:27:31.476Z,5.96
2023-03-22T05:30:35.662Z,6.09
2023-03-22T05:33:39.288Z,6.23
2023-03-22T05:36:42.420Z,6.41
2023-03-22T05:39:45.467Z,6.57
2023-03-22T05:42:48.585Z,6.69
2023-03-22T05:45:51.775Z,6.80
2023-03-22T05:48:56.184Z,6.93
2023-03-22T05:51:59.393Z,7.15
2023-03-22T05:55:03.778Z,7.56
2023-03-22T05:58:07.717Z,7.51
2023-03-22T06:01:12.793Z,7.57
2023-03-22T06:04:18.800Z,7.60
2023-03-22T06:07:22.141Z,7.91
2023-03-22T06:10:29.338Z,8.02
2023-03-22T06:13:33.221Z,8.12
2023-03-22T06:16:36.283Z,8.13
2023-03-22T06:19:39.427Z,8.28
2023-03-22T06:22:42.886Z,8.68
2023-03-22T06:25:46.062Z,9.25
2023-03-22T06:28:49.001Z,9.51
2023-03-22T06:31:51.965Z,9.57
2023-03-22T06:34:55.728Z,9.62
2023-03-22T06:37:59.457Z,9.92
2023-03-22T06:41:03.361Z,10.26
2023-03-22T06:44:06.057Z,10.85
2023-03-22T06:47:11.705Z,11.23
2023-03-22T06:50:15.814Z,11.42
2023-03-22T06:53:23.671Z,11.52
2023-03-22T06:56:27.115Z,11.72
2023-03-22T06:59:30.310Z,11.81
2023-03-22T07:02:32.939Z,12.03
2023-03-22T07:05:40.014Z,12.20
2023-03-22T07:08:43.179Z,12.30
2023-03-22T07:11:47.532Z,12.43
2023-03-22T07:14:50.928Z,12.26
2023-03-22T07:17:54.462Z,12.56
2023-03-22T07:20:57.469Z,12.71
2023-03-22T07:24:00.904Z,12.78
2023-03-22T07:27:03.999Z,12.95
2023-03-22T07:30:09.790Z,13.20
2023-03-22T07:33:12.807Z,13.29
2023-03-22T07:36:16.852Z,13.34
2023-03-22T07:39:19.410Z,13.51
2023-03-22T07:42:23.750Z,13.57
2023-03-22T07:45:30.010Z,13.81
2023-03-22T07:48:36.458Z,13.79
2023-03-22T07:51:40.895Z,13.87
2023-03-22T07:54:44.453Z,13.94
2023-03-22T07:57:47.091Z,14.22
2023-03-22T08:00:50.416Z,14.26
2023-03-22T08:03:57.111Z,14.48
2023-03-22T08:07:01.202Z,14.63
2023-03-22T08:10:04.896Z,14.55
2023-03-22T08:13:09.443Z,14.72
2023-03-22T08:16:12.660Z,15.07
2023-03-22T08:19:15.490Z,15.18
2023-03-22T08:22:19.191Z,15.25
2023-03-22T08:25:25.408Z,15.16
2023-03-22T08:28:28.669Z,15.01
2023-03-22T08:31:31.695Z,15.31
2023-03-22T08:34:39.227Z,15.28
2023-03-22T08:37:41.936Z,15.07
2023-03-22T08:40:48.455Z,15.09
2023-03-22T08:43:54.125Z,14.92
2023-03-22T08:46:57.278Z,15.10
2023-03-22T08:49:59.947Z,15.25
2023-03-22T08:53:03.761Z,15.33
2023-03-22T08:56:07.899Z,15.30
2023-03-22T08:59:11.758Z,15.49
2023-03-22T09:02:14.833Z,15.82
2023-03-22T09:05:17.859Z,15.77
2023-03-22T09:08:21.208Z,15.75
2023-03-22T09:11:24.701Z,15.90
2023-03-22T09:14:27.484Z,16.28
2023-03-22T09:17:30.681Z,16.31
2023-03-22T09:20:34.652Z,16.46
2023-03-22T09:23:39.308Z,16.53
2023-03-22T09:26:42.464Z,17.00
2023-03-22T09:29:45.554Z,16.66
2023-03-22T09:32:49.317Z,16.65
2023-03-22T09:35:54.676Z,16.78
2023-03-22T09:38:57.688Z,16.79
2023-03-22T09:42:04.230Z,16.71
2023-03-22T09:45:13.796Z,16.73
2023-03-22T09:48:28.915Z,16.58
2023-03-22T09:51:41.885Z,16.66
2023-03-22T09:54:47.259Z,16.57
2023-03-22T09:57:58.829Z,16.75
2023-03-22T10:01:24.856Z,16.86
2023-03-22T10:04:55.406Z,16.48
2023-03-22T10:08:10.912Z,16.30
2023-03-22T10:11:40.150Z,15.89
2023-03-22T10:14:48.088Z,15.45
2023-03-22T10:17:55.325Z,15.56
2023-03-22T10:21:04.436Z,15.42
2023-03-22T10:24:17.291Z,15.59
2023-03-22T10:27:21.686Z,15.62
2023-03-22T10:30:27.443Z,15.52
2023-03-22T10:33:50.270Z,15.39
2023-03-22T10:36:53.548Z,15.44
2023-03-22T10:39:59.912Z,15.48
2023-03-22T10:43:11.786Z,15.47
2023-03-22T10:46:18.996Z,15.38
2023-03-22T10:49:29.550Z,15.21
2023-03-22T10:52:50.584Z,15.25
2023-03-22T10:55:53.460Z,15.13
2023-03-22T10:58:57.383Z,14.99
2023-03-22T11:02:01.761Z,14.97
2023-03-22T11:05:07.271Z,14.99
2023-03-22T11:08:14.535Z,14.83
2023-03-22T11:11:27.816Z,14.91
2023-03-22T11:14:35.388Z,14.94
2023-03-22T11:17:39.167Z,14.93
2023-03-22T11:20:52.534Z,14.95
2023-03-22T11:24:00.538Z,15.00
2023-03-22T11:27:06.312Z,14.94
2023-03-22T11:30:20.293Z,15.03
2023-03-22T11:33:25.964Z,15.28
2023-03-22T11:36:29.678Z,15.39
2023-03-22T11:39:32.732Z,15.63
2023-03-22T11:42:35.908Z,16.05
2023-03-22T11:45:44.059Z,16.50
2023-03-22T11:48:50.503Z,16.99
2023-03-22T11:51:55.603Z,17.37
2023-03-22T11:55:00.199Z,17.47
2023-03-22T11:58:04.781Z,17.62
2023-03-22T12:01:16.097Z,17.92
2023-03-22T12:04:25.468Z,18.15
2023-03-22T12:07:31.243Z,18.15
2023-03-22T12:10:41.272Z,18.36
2023-03-22T12:13:52.888Z,18.57
2023-03-22T12:17:06.371Z,18.92
2023-03-22T12:20:31.038Z,18.95
2023-03-22T12:23:35.324Z,18.93
2023-03-22T12:26:38.995Z,18.64
2023-03-22T12:29:58.638Z,18.66
2023-03-22T12:33:18.518Z,18.66
2023-03-22T12:36:27.566Z,18.69
2023-03-22T12:39:35.312Z,18.91
2023-03-22T12:42:51.574Z,19.08
2023-03-22T12:45:59.114Z,19.12
2023-03-22T12:49:15.512Z,18.64
2023-03-22T12:52:26.461Z,18.78
2023-03-22T12:55:36.737Z,19.15
2023-03-22T12:58:39.539Z,19.20
2023-03-22T13:01:54.808Z,19.61
2023-03-22T13:05:04.929Z,19.76
2023-03-22T13:08:08.152Z,19.46
2023-03-22T13:11:23.284Z,19.38
2023-03-22T13:14:49.014Z,19.71
2023-03-22T13:18:02.659Z,20.12
2023-03-22T13:21:21.287Z,20.13
2023-03-22T13:24:24.008Z,19.77
2023-03-22T13:27:39.974Z,19.92
2023-03-22T13:30:50.012Z,19.77
2023-03-22T13:33:53.675Z,19.92
2023-03-22T13:36:57.406Z,19.91
2023-03-22T13:40:02.313Z,20.02
2023-03-22T13:43:20.013Z,19.70
2023-03-22T13:46:23.101Z,19.87
2023-03-22T13:49:58.671Z,19.43
2023-03-22T13:53:05.114Z,19.39
2023-03-22T13:56:12.601Z,19.56
2023-03-22T13:59:20.379Z,19.32
2023-03-22T14:02:35.954Z,19.51
2023-03-22T14:05:39.957Z,19.43
2023-03-22T14:08:46.320Z,19.23
2023-03-22T14:11:56.982Z,19.26
2023-03-22T14:15:03.632Z,19.36
2023-03-22T14:18:23.951Z,19.43
2023-03-22T14:21:35.003Z,19.12
